Time;durP1;ratioP1;P1;durP2;ratioP2;P2;SDS_P1;SDS_P2;PMS_P1;PMS_P2;Temp;Humidity;BMP_temperature;BMP_pressure;BME280_temperature;BME280_humidity;BME280_pressure;Samples;Min_cycle;Max_cycle;Signal;HPM_P1;HPM_P2
2022/12/12 00:01:54;;;;;;;2.42;1.95;;;;;;;12.43;58.74;98123.13;5073765;28;20097;-80
2022/12/12 00:04:20;;;;;;;2.67;2.22;;;;;;;11.69;58.64;98015.78;5073847;28;20074;-80
2022/12/12 00:06:45;;;;;;;3.67;2.20;;;;;;;12.41;58.76;98143.72;5073984;28;20027;-80
2022/12/12 00:09:11;;;;;;;3.20;2.30;;;;;;;11.53;58.91;98003.16;5073763;28;20035;-80
2022/12/12 00:11:37;;;;;;;3.00;2.20;;;;;;;12.02;58.82;98098.22;5072399;28;20049;-80
2022/12/12 00:14:03;;;;;;;2.92;2.15;;;;;;;11.62;58.69;98042.28;5073633;28;20117;-79
2022/12/12 00:16:29;;;;;;;2.28;1.83;;;;;;;11.67;58.52;98063.56;5073571;28;20024;-79
2022/12/12 00:18:54;;;;;;;2.15;1.67;;;;;;;11.92;58.34;98119.09;5073423;28;20105;-79
2022/12/12 00:21:23;;;;;;;1.83;1.58;;;;;;;11.53;58.40;98038.31;5073490;28;20025;-79
2022/12/12 00:23:49;;;;;;;3.17;2.10;;;;;;;12.07;58.00;98147.81;5073411;28;20024;-79
2022/12/12 00:26:20;;;;;;;4.25;1.67;;;;;;;12.00;58.54;98155.81;5073364;28;20035;-79
2022/12/12 00:28:46;;;;;;;2.33;1.80;;;;;;;11.70;58.44;98104.63;5072185;28;20031;-79
2022/12/12 00:31:12;;;;;;;2.38;2.17;;;;;;;11.22;58.30;98080.72;5073701;28;20032;-79
2022/12/12 00:33:38;;;;;;;1.90;1.65;;;;;;;12.06;57.62;98188.50;5073458;28;20471;-79
2022/12/12 00:36:04;;;;;;;2.55;1.90;;;;;;;11.87;58.09;98155.94;5073446;28;20099;-79
2022/12/12 00:38:29;;;;;;;3.03;2.25;;;;;;;11.38;57.90;98083.63;5072838;28;20031;-79
2022/12/12 00:41:00;;;;;;;2.67;2.05;;;;;;;11.53;57.95;98099.13;5073483;28;20021;-80
2022/12/12 00:43:26;;;;;;;2.42;1.92;;;;;;;11.91;57.69;98174.84;5073201;28;20013;-80
2022/12/12 00:45:52;;;;;;;2.08;1.77;;;;;;;11.48;57.52;98116.66;5071998;28;20482;-80
2022/12/12 00:48:17;;;;;;;2.70;1.92;;;;;;;11.68;57.96;98135.75;5073123;28;20020;-80
2022/12/12 00:50:43;;;;;;;2.10;1.70;;;;;;;11.45;57.64;98102.03;5071989;28;20082;-79
2022/12/12 00:53:09;;;;;;;2.65;2.00;;;;;;;11.68;57.50;98160.38;5072958;28;20021;-79
2022/12/12 00:55:35;;;;;;;2.30;2.10;;;;;;;11.83;57.09;98173.28;5072715;28;20020;-79
2022/12/12 00:58:00;;;;;;;3.38;2.05;;;;;;;11.68;57.63;98170.13;5072561;28;20032;-79
2022/12/12 01:00:27;;;;;;;2.28;1.98;;;;;;;11.28;57.34;98127.41;5071367;28;20043;-79
2022/12/12 01:02:55;;;;;;;2.83;2.20;;;;;;;11.42;57.50;98157.97;5072705;28;20027;-79
2022/12/12 01:05:21;;;;;;;3.10;2.35;;;;;;;11.45;57.45;98163.63;5072651;28;20017;-79
2022/12/12 01:07:46;;;;;;;2.67;2.30;;;;;;;11.25;57.14;98122.56;5072642;28;20485;-79
2022/12/12 01:10:11;;;;;;;1.92;1.75;;;;;;;11.54;57.51;98177.38;5071077;28;20021;-79
2022/12/12 01:12:37;;;;;;;2.67;2.17;;;;;;;11.44;57.45;98180.53;5072466;28;20035;-79
2022/12/12 01:15:06;;;;;;;3.30;2.30;;;;;;;11.55;57.27;98186.13;5072590;28;20085;-79
2022/12/12 01:17:36;;;;;;;2.22;2.03;;;;;;;11.37;57.52;98161.28;5072486;28;20614;-79
2022/12/12 01:20:13;;;;;;;2.35;2.15;;;;;;;11.74;57.25;98222.94;5071106;28;20017;-79
2022/12/12 01:22:39;;;;;;;3.00;2.55;;;;;;;11.28;57.22;98140.63;5072297;28;20025;-79
2022/12/12 01:25:04;;;;;;;3.28;2.75;;;;;;;11.35;56.95;98165.97;5072176;28;20029;-79
2022/12/12 01:27:30;;;;;;;2.85;2.35;;;;;;;11.16;57.17;98145.81;5072132;28;20051;-79
2022/12/12 01:29:57;;;;;;;4.07;2.03;;;;;;;11.70;57.31;98231.53;5071960;28;20517;-79
2022/12/12 01:32:22;;;;;;;3.00;2.38;;;;;;;11.61;57.23;98236.28;5071894;28;20024;-79
2022/12/12 01:34:48;;;;;;;3.83;2.63;;;;;;;11.48;57.21;98219.75;5071888;28;20512;-79
2022/12/12 01:37:13;;;;;;;4.20;2.60;;;;;;;11.00;57.73;98160.31;5072434;28;20020;-79
2022/12/12 01:39:38;;;;;;;2.28;2.08;;;;;;;10.79;57.23;98121.06;5072110;28;20489;-79
2022/12/12 01:42:11;;;;;;;2.72;2.22;;;;;;;11.27;57.06;98205.06;5070683;28;20028;-79
2022/12/12 01:44:46;;;;;;;10.82;6.95;;;;;;;11.57;57.52;98242.22;5070895;28;20020;-79
2022/12/12 01:47:14;;;;;;;10.65;6.68;;;;;;;11.54;57.11;98240.00;5070505;28;20405;-79
2022/12/12 01:49:44;;;;;;;8.00;5.57;;;;;;;10.82;56.90;98149.69;5070953;28;20023;-79
2022/12/12 01:52:16;;;;;;;4.88;3.40;;;;;;;11.01;57.13;98180.44;5070414;28;20023;-79
2022/12/12 01:54:46;;;;;;;4.15;3.15;;;;;;;11.05;57.06;98181.63;5071734;28;20032;-79
2022/12/12 01:57:17;;;;;;;4.07;2.83;;;;;;;11.01;57.27;98184.91;5071797;28;20030;-79
2022/12/12 01:59:44;;;;;;;2.35;2.22;;;;;;;11.42;57.33;98267.16;5070396;28;20028;-79
2022/12/12 02:02:10;;;;;;;4.53;3.28;;;;;;;10.63;57.41;98169.91;5071486;28;20549;-79
2022/12/12 02:04:35;;;;;;;4.43;2.42;;;;;;;10.55;57.76;98179.91;5071616;28;20024;-79
2022/12/12 02:07:02;;;;;;;3.72;2.40;;;;;;;10.71;58.23;98211.91;5070152;28;20032;-79
2022/12/12 02:09:27;;;;;;;3.60;2.67;;;;;;;10.68;57.53;98219.44;5071602;28;20052;-79
2022/12/12 02:11:55;;;;;;;4.05;2.33;;;;;;;11.15;57.74;98276.28;5071448;28;20083;-80
2022/12/12 02:14:41;;;;;;;4.07;2.92;;;;;;;10.24;57.79;98141.88;5071522;28;20027;-79
2022/12/12 02:17:36;;;;;;;3.97;2.53;;;;;;;10.92;58.10;98286.53;5071551;28;20026;-79
2022/12/12 02:20:17;;;;;;;10.93;5.88;;;;;;;10.91;58.84;98288.38;5071442;28;20031;-79
2022/12/12 02:23:13;;;;;;;6.20;4.53;;;;;;;10.91;57.86;98283.09;5071550;28;20013;-79
2022/12/12 02:26:22;;;;;;;4.57;3.60;;;;;;;10.88;58.75;98280.06;5071542;28;20024;-79
2022/12/12 02:29:25;;;;;;;4.05;2.58;;;;;;;10.95;58.18;98286.09;5071511;28;20016;-80
2022/12/12 02:32:09;;;;;;;4.47;2.72;;;;;;;10.97;58.87;98268.22;5072269;28;20024;-79
2022/12/12 02:34:43;;;;;;;5.45;3.50;;;;;;;10.98;58.23;98286.50;5070377;28;20081;-80
2022/12/12 02:37:28;;;;;;;3.65;3.17;;;;;;;10.83;58.48;98272.75;5071366;28;20021;-79
2022/12/12 02:39:59;;;;;;;4.80;3.28;;;;;;;9.92;58.95;98130.41;5071271;28;20418;-79
2022/12/12 02:42:35;;;;;;;5.47;3.55;;;;;;;10.22;58.59;98219.59;5070983;28;20045;-79
2022/12/12 02:45:32;;;;;;;4.72;2.55;;;;;;;10.86;58.98;98296.09;5071042;28;20100;-79
2022/12/12 02:48:07;;;;;;;3.45;2.60;;;;;;;10.84;58.46;98290.22;5062136;28;20493;-79
2022/12/12 02:50:34;;;;;;;4.93;2.97;;;;;;;10.81;59.03;98302.00;5071045;28;20017;-80
2022/12/12 02:53:00;;;;;;;5.93;3.63;;;;;;;10.72;58.85;98302.47;5071158;28;20017;-80
2022/12/12 02:55:25;;;;;;;7.88;4.28;;;;;;;10.49;58.91;98281.84;5071415;28;20028;-80
2022/12/12 02:57:53;;;;;;;7.13;4.47;;;;;;;10.02;58.99;98190.63;5070138;28;20451;-79
2022/12/12 03:00:19;;;;;;;6.70;4.10;;;;;;;10.57;59.48;98310.63;5071085;28;20421;-80
2022/12/12 03:07:45;;;;;;;5.57;4.03;;;;;;;10.63;59.33;98311.63;5074218;28;20021;-80
2022/12/12 03:09:26;;;;;;;6.55;4.00;;;;;;;9.96;59.40;98218.63;5074975;28;20031;-79
2022/12/12 03:12:26;;;;;;;5.28;3.97;;;;;;;10.34;59.71;98273.31;5073239;28;20044;-79
2022/12/12 03:15:07;;;;;;;4.28;3.45;;;;;;;10.20;59.29;98246.19;5066348;28;20421;-79
2022/12/12 03:18:08;;;;;;;5.90;3.30;;;;;;;10.59;59.20;98321.78;5073538;28;20028;-79
2022/12/12 03:21:03;;;;;;;4.70;3.40;;;;;;;10.63;59.74;98319.56;5074657;28;20033;-79
2022/12/12 03:23:43;;;;;;;5.00;3.70;;;;;;;10.34;59.16;98278.59;5073329;28;20023;-79
2022/12/12 03:26:16;;;;;;;4.88;3.88;;;;;;;10.64;59.35;98314.06;5074281;28;20550;-79
2022/12/12 03:28:46;;;;;;;7.30;5.15;;;;;;;10.66;59.53;98317.31;5074566;28;20020;-79
2022/12/12 03:31:15;;;;;;;9.02;4.78;;;;;;;10.63;59.59;98315.09;5074727;28;20527;-79
2022/12/12 03:33:49;;;;;;;6.20;4.20;;;;;;;10.64;59.08;98311.44;5074405;28;20021;-79
2022/12/12 03:36:19;;;;;;;5.32;3.97;;;;;;;10.67;59.33;98331.31;5074409;28;20111;-80
2022/12/12 03:39:11;;;;;;;6.05;4.30;;;;;;;10.64;59.13;98321.97;5073042;28;20036;-79
2022/12/12 03:41:46;;;;;;;7.90;4.53;;;;;;;10.29;59.51;98291.59;5074297;28;20505;-79
2022/12/12 03:44:42;;;;;;;8.52;5.40;;;;;;;10.34;59.90;98302.34;5072834;28;20485;-79
2022/12/12 03:47:17;;;;;;;6.47;4.50;;;;;;;10.54;59.79;98345.38;5074250;28;20035;-79
2022/12/12 03:50:17;;;;;;;5.38;3.90;;;;;;;10.12;59.26;98299.94;5072820;28;20040;-79
2022/12/12 03:53:02;;;;;;;5.53;3.72;;;;;;;9.44;59.95;98201.03;5073550;28;20584;-79
2022/12/12 03:55:57;;;;;;;3.55;3.08;;;;;;;9.96;59.49;98297.72;5074090;28;20024;-79
2022/12/12 03:58:35;;;;;;;5.95;3.92;;;;;;;10.05;60.07;98338.69;5073663;28;20054;-79
2022/12/12 04:01:06;;;;;;;4.88;3.58;;;;;;;9.44;59.89;98238.72;5073819;28;20028;-79
2022/12/12 04:04:02;;;;;;;4.25;3.58;;;;;;;9.84;60.09;98302.81;5073803;28;20025;-79
2022/12/12 04:06:42;;;;;;;6.85;5.07;;;;;;;10.00;59.95;98342.94;5072549;28;20013;-79
2022/12/12 04:15:25;;;;;;;8.32;7.03;;;;;;;10.28;60.21;98391.03;5073532;28;20046;-79
2022/12/12 04:18:18;;;;;;;6.75;5.50;;;;;;;10.29;60.19;98389.22;5073571;28;20101;-79
2022/12/12 04:24:01;;;;;;;9.20;7.15;;;;;;;10.19;60.26;98387.78;5073290;28;20583;-79
2022/12/12 04:26:40;;;;;;;9.27;8.05;;;;;;;10.23;60.34;98388.22;5072040;28;20393;-79
2022/12/12 04:29:14;;;;;;;11.25;7.03;;;;;;;9.99;60.31;98341.31;5073368;28;20043;-79
2022/12/12 04:32:09;;;;;;;8.23;6.50;;;;;;;10.16;60.44;98361.81;5073440;28;20024;-79
2022/12/12 04:34:57;;;;;;;11.43;9.23;;;;;;;10.08;59.92;98358.56;5069717;28;20037;-79
2022/12/12 04:37:40;;;;;;;12.10;8.23;;;;;;;10.30;60.22;98390.84;5073219;28;20505;-79
2022/12/12 04:40:10;;;;;;;14.07;10.63;;;;;;;9.51;60.45;98276.41;5073364;28;20548;-79
2022/12/12 04:42:42;;;;;;;16.75;12.55;;;;;;;10.32;60.34;98396.72;5073179;28;20056;-79
2022/12/12 04:45:14;;;;;;;10.95;9.00;;;;;;;10.29;60.17;98407.69;5073227;28;20485;-79
2022/12/12 04:47:43;;;;;;;32.88;22.88;;;;;;;10.06;60.61;98371.94;5071786;28;20115;-79
2022/12/12 04:50:10;;;;;;;46.97;32.63;;;;;;;9.49;60.10;98283.72;5071650;28;20086;-79
2022/12/12 04:52:38;;;;;;;37.00;28.90;;;;;;;10.22;60.10;98393.69;5072868;28;20028;-79
2022/12/12 04:55:09;;;;;;;15.75;11.90;;;;;;;10.31;60.37;98408.28;5071585;28;20036;-79
2022/12/12 04:57:39;;;;;;;11.40;7.35;;;;;;;10.31;59.83;98400.38;5073129;28;20024;-79
2022/12/12 05:00:07;;;;;;;8.77;6.15;;;;;;;9.91;59.45;98339.72;5071247;28;20040;-79
2022/12/12 05:02:56;;;;;;;9.30;7.03;;;;;;;10.23;59.15;98404.03;5072643;28;20145;-79
2022/12/12 05:05:35;;;;;;;6.32;5.13;;;;;;;10.22;59.33;98405.06;5072666;28;20841;-79
2022/12/12 05:08:21;;;;;;;5.70;5.10;;;;;;;10.23;59.06;98413.78;5072016;28;20146;-79
2022/12/12 05:10:52;;;;;;;6.47;4.38;;;;;;;10.19;59.52;98410.69;5071850;28;20129;-79
2022/12/12 05:13:21;;;;;;;6.15;4.68;;;;;;;9.74;58.79;98351.66;5072967;28;20128;-79
2022/12/12 05:15:49;;;;;;;5.32;4.55;;;;;;;9.47;58.79;98308.63;5072970;28;20103;-79
2022/12/12 05:18:15;;;;;;;4.95;4.45;;;;;;;10.21;58.71;98439.53;5072910;28;20104;-80
2022/12/12 05:20:41;;;;;;;7.05;4.63;;;;;;;9.76;59.10;98397.91;5073198;28;20024;-79
2022/12/12 05:23:06;;;;;;;7.93;5.93;;;;;;;10.00;58.91;98440.50;5072549;28;20017;-79
2022/12/12 05:25:32;;;;;;;7.93;6.72;;;;;;;9.55;58.76;98369.03;5072299;28;20512;-79
2022/12/12 05:27:58;;;;;;;8.93;6.32;;;;;;;10.05;59.02;98449.44;5072291;28;20459;-79
2022/12/12 05:30:23;;;;;;;9.48;6.18;;;;;;;9.67;59.03;98382.47;5072243;28;20068;-79
2022/12/12 05:32:49;;;;;;;7.40;5.80;;;;;;;9.34;58.69;98338.41;5070881;28;20028;-79
2022/12/12 05:35:15;;;;;;;6.47;5.35;;;;;;;9.87;58.45;98414.94;5072081;28;20024;-79
2022/12/12 05:37:41;;;;;;;6.88;4.72;;;;;;;9.32;58.73;98334.34;5070800;28;20409;-79
2022/12/12 05:40:08;;;;;;;8.52;5.05;;;;;;;9.77;58.20;98409.25;5071963;28;20027;-79
2022/12/12 05:42:33;;;;;;;5.82;5.18;;;;;;;9.78;58.64;98421.41;5070511;28;20099;-79
2022/12/12 05:44:59;;;;;;;8.80;5.82;;;;;;;9.79;58.25;98442.31;5071779;28;20177;-79
2022/12/12 05:47:25;;;;;;;8.25;6.57;;;;;;;9.69;58.08;98425.25;5071893;28;20028;-79
2022/12/12 05:49:50;;;;;;;8.43;5.95;;;;;;;9.56;58.65;98440.00;5071775;28;20032;-79
2022/12/12 05:52:16;;;;;;;8.25;5.43;;;;;;;9.51;58.30;98410.78;5070250;28;20029;-79
2022/12/12 05:54:41;;;;;;;6.40;5.05;;;;;;;9.90;58.51;98477.00;5071487;28;20107;-79
2022/12/12 05:57:07;;;;;;;7.10;5.13;;;;;;;9.25;58.04;98358.03;5071682;28;20024;-79
2022/12/12 05:59:32;;;;;;;11.75;6.05;;;;;;;9.62;57.79;98416.50;5071599;28;20034;-79
2022/12/12 06:01:57;;;;;;;7.97;5.75;;;;;;;9.72;58.52;98436.22;5071539;28;20028;-80
2022/12/12 06:04:23;;;;;;;7.32;6.00;;;;;;;9.92;58.01;98472.34;5071615;28;20032;-79
2022/12/12 06:06:48;;;;;;;8.10;5.95;;;;;;;9.28;57.72;98402.41;5071481;28;20025;-79
2022/12/12 06:09:14;;;;;;;7.13;5.78;;;;;;;9.62;57.52;98442.84;5071581;28;20040;-79
2022/12/12 06:11:40;;;;;;;6.03;5.43;;;;;;;9.62;57.77;98430.47;5069953;28;20121;-79
2022/12/12 06:14:05;;;;;;;7.43;6.63;;;;;;;9.87;57.73;98467.66;5071084;28;20094;-79
2022/12/12 06:16:31;;;;;;;6.40;5.55;;;;;;;9.72;57.36;98453.84;5071185;28;20028;-79
2022/12/12 06:18:56;;;;;;;6.57;5.78;;;;;;;10.13;57.44;98509.09;5071414;28;20478;-79
2022/12/12 06:21:22;;;;;;;9.40;7.40;;;;;;;10.08;57.69;98506.25;5070005;28;20548;-80
2022/12/12 06:23:48;;;;;;;9.07;6.38;;;;;;;10.06;57.87;98510.91;5071213;28;20704;-79
2022/12/12 06:26:15;;;;;;;10.10;7.03;;;;;;;10.07;58.01;98509.91;5071106;28;20526;-79
2022/12/12 06:28:41;;;;;;;10.15;6.70;;;;;;;10.14;57.99;98506.25;5070032;28;20409;-79
2022/12/12 06:31:08;;;;;;;11.48;7.65;;;;;;;10.06;57.72;98503.81;5071289;28;20059;-79
2022/12/12 06:33:35;;;;;;;11.48;8.55;;;;;;;9.72;57.67;98443.31;5071080;28;20043;-80
2022/12/12 06:36:10;;;;;;;16.25;11.38;;;;;;;9.97;57.84;98480.47;5069414;28;20021;-79
2022/12/12 06:38:37;;;;;;;14.77;12.38;;;;;;;9.82;57.84;98465.63;5053329;28;20490;-80
2022/12/12 06:41:11;;;;;;;19.42;13.30;;;;;;;9.78;57.58;98447.78;5052262;28;20082;-79
2022/12/12 06:43:37;;;;;;;20.42;14.43;;;;;;;10.22;57.78;98536.13;5058846;28;20386;-80
2022/12/12 06:46:05;;;;;;;27.92;17.15;;;;;;;9.46;57.83;98442.19;5050752;28;20113;-80
2022/12/12 06:48:32;;;;;;;22.95;16.02;;;;;;;10.25;57.62;98539.19;5050808;28;20039;-80
2022/12/12 06:50:58;;;;;;;27.67;17.80;;;;;;;10.38;57.67;98541.84;5050794;28;20463;-80
2022/12/12 06:53:23;;;;;;;23.67;19.42;;;;;;;10.10;57.64;98506.84;5051058;28;20059;-80
2022/12/12 06:55:49;;;;;;;30.50;24.52;;;;;;;10.32;57.27;98542.63;5051224;28;20482;-80
2022/12/12 06:58:14;;;;;;;32.15;25.02;;;;;;;10.41;57.46;98559.94;5051231;28;20024;-80
2022/12/12 07:00:40;;;;;;;40.22;28.70;;;;;;;9.76;57.47;98463.78;5051209;28;20129;-80
2022/12/12 07:03:05;;;;;;;42.10;32.40;;;;;;;10.07;57.71;98547.63;5051262;28;20025;-80
2022/12/12 07:05:31;;;;;;;39.33;29.75;;;;;;;10.05;58.06;98531.19;5051058;28;20559;-80
2022/12/12 07:08:01;;;;;;;36.83;27.17;;;;;;;10.23;58.44;98562.31;5051194;28;20033;-80
2022/12/12 07:10:27;;;;;;;40.28;28.08;;;;;;;10.17;58.63;98548.06;5049555;28;20029;-79
2022/12/12 07:12:52;;;;;;;38.50;25.58;;;;;;;10.06;58.94;98540.72;5050078;28;20040;-80
2022/12/12 07:15:18;;;;;;;40.17;27.88;;;;;;;10.13;58.68;98575.84;5051746;28;20097;-80
2022/12/12 07:17:43;;;;;;;31.08;23.05;;;;;;;10.13;58.69;98562.66;5050844;28;20024;-80
2022/12/12 07:20:09;;;;;;;30.13;21.75;;;;;;;10.16;58.85;98564.91;5049546;28;20036;-80
2022/12/12 07:22:35;;;;;;;23.23;19.13;;;;;;;9.00;58.71;98385.91;5051117;28;20024;-79
2022/12/12 07:25:01;;;;;;;22.73;17.58;;;;;;;9.97;58.99;98533.19;5038559;28;20040;-80
2022/12/12 07:27:26;;;;;;;20.90;16.50;;;;;;;9.75;58.35;98493.00;5041228;28;20111;-80
2022/12/12 07:29:51;;;;;;;23.42;17.35;;;;;;;10.11;58.78;98543.59;5050477;28;20478;-79
2022/12/12 07:32:17;;;;;;;23.85;18.13;;;;;;;10.17;58.26;98566.53;5052784;28;20028;-80
2022/12/12 07:34:42;;;;;;;24.73;17.20;;;;;;;10.20;58.42;98552.16;5051818;28;20111;-80
2022/12/12 07:37:08;;;;;;;24.45;18.15;;;;;;;9.87;58.25;98494.03;5040471;28;20033;-79
2022/12/12 07:39:33;;;;;;;24.38;17.77;;;;;;;10.42;58.17;98585.31;5030623;28;20037;-79
2022/12/12 07:41:59;;;;;;;21.60;17.20;;;;;;;9.98;58.11;98517.19;5051801;28;20517;-80
2022/12/12 07:44:24;;;;;;;23.75;18.55;;;;;;;9.80;58.15;98496.66;5041405;28;20025;-80
2022/12/12 07:46:50;;;;;;;24.70;18.48;;;;;;;9.86;58.21;98527.50;5039262;28;20021;-79
2022/12/12 07:49:16;;;;;;;19.92;15.75;;;;;;;9.43;59.10;98470.75;5042235;28;20116;-80
2022/12/12 07:51:41;;;;;;;19.35;16.08;;;;;;;10.27;58.67;98602.28;5053293;28;20028;-80
2022/12/12 07:54:07;;;;;;;17.48;13.20;;;;;;;10.13;58.49;98588.22;5047414;28;20120;-80
2022/12/12 07:56:32;;;;;;;16.55;14.75;;;;;;;9.52;58.25;98523.09;5055121;28;20081;-80
2022/12/12 07:58:58;;;;;;;14.90;12.07;;;;;;;9.67;58.31;98533.50;5058697;28;20082;-79
2022/12/12 08:01:25;;;;;;;14.20;12.48;;;;;;;9.91;58.12;98563.00;5053783;28;20036;-80
2022/12/12 08:03:52;;;;;;;17.20;13.45;;;;;;;9.68;58.30;98531.69;5053632;28;20414;-79
2022/12/12 08:06:18;;;;;;;23.58;17.30;;;;;;;9.83;58.08;98548.97;5051829;28;20071;-80
2022/12/12 08:08:45;;;;;;;19.17;16.38;;;;;;;9.36;58.55;98462.00;5054286;28;20048;-80
2022/12/12 08:11:13;;;;;;;21.70;17.45;;;;;;;9.75;58.34;98521.97;5053979;28;20057;-79
2022/12/12 08:13:40;;;;;;;23.10;16.52;;;;;;;10.38;58.19;98613.09;5057051;28;20040;-79
2022/12/12 08:16:10;;;;;;;22.02;17.13;;;;;;;10.21;58.37;98597.81;5053197;28;20082;-79
2022/12/12 08:18:36;;;;;;;23.73;18.13;;;;;;;9.69;58.57;98504.31;5053230;28;20087;-79
2022/12/12 08:21:06;;;;;;;26.42;18.85;;;;;;;9.37;58.68;98448.66;5052944;28;20413;-80
2022/12/12 08:23:31;;;;;;;20.30;16.35;;;;;;;9.82;58.65;98512.28;5053515;28;20032;-79
2022/12/12 08:26:02;;;;;;;31.50;24.08;;;;;;;10.48;58.35;98616.19;5053055;28;20521;-80
2022/12/12 08:28:27;;;;;;;27.25;20.15;;;;;;;10.57;58.30;98597.50;5061493;28;20417;-80
2022/12/12 08:30:53;;;;;;;20.88;16.83;;;;;;;10.51;58.55;98593.84;5052285;28;20033;-80
2022/12/12 08:33:18;;;;;;;23.80;17.45;;;;;;;10.68;58.26;98603.00;5049445;28;20115;-80
2022/12/12 08:35:44;;;;;;;26.73;19.15;;;;;;;10.01;58.74;98503.59;5045363;28;20067;-79
2022/12/12 08:38:09;;;;;;;27.73;19.42;;;;;;;10.23;58.70;98519.28;5048681;28;20102;-79
2022/12/12 08:40:35;;;;;;;35.45;22.55;;;;;;;10.17;58.42;98503.22;5052875;28;20126;-79
2022/12/12 08:43:00;;;;;;;36.50;22.58;;;;;;;10.26;58.43;98510.97;5058754;28;20029;-80
2022/12/12 08:45:26;;;;;;;37.38;27.90;;;;;;;10.11;58.49;98480.28;5053323;28;20051;-79
2022/12/12 08:47:51;;;;;;;31.30;23.55;;;;;;;10.31;58.51;98492.72;5067903;28;20452;-79
2022/12/12 08:50:16;;;;;;;33.15;23.80;;;;;;;11.01;57.84;98597.75;5071307;28;20103;-80
2022/12/12 08:52:42;;;;;;;33.13;25.13;;;;;;;10.57;58.28;98518.34;5072463;28;20028;-79
2022/12/12 08:55:07;;;;;;;30.40;23.65;;;;;;;10.83;58.41;98568.50;5067555;28;20041;-80
2022/12/12 08:57:33;;;;;;;38.13;26.15;;;;;;;11.08;58.20;98600.38;5046002;28;20032;-80
2022/12/12 08:59:58;;;;;;;34.72;25.10;;;;;;;11.01;58.27;98586.34;5037566;28;20036;-80
2022/12/12 09:02:24;;;;;;;30.55;22.95;;;;;;;10.43;58.88;98483.22;5032212;28;20025;-80
2022/12/12 09:04:49;;;;;;;29.33;22.23;;;;;;;10.99;58.75;98569.91;5050717;28;20478;-80
2022/12/12 09:07:14;;;;;;;36.95;27.38;;;;;;;10.66;58.52;98509.19;5053554;28;20037;-80
2022/12/12 09:09:40;;;;;;;29.85;21.67;;;;;;;11.17;58.74;98582.50;5041320;28;20118;-80
2022/12/12 09:12:06;;;;;;;32.88;26.40;;;;;;;10.99;58.74;98556.69;5051927;28;20045;-79
2022/12/12 09:14:32;;;;;;;35.17;24.30;;;;;;;10.93;58.70;98529.28;5052189;28;20028;-79
2022/12/12 09:16:57;;;;;;;31.27;23.65;;;;;;;10.97;58.54;98537.59;5051650;28;20508;-80
2022/12/12 09:19:23;;;;;;;26.92;21.83;;;;;;;11.33;58.61;98569.69;5050537;28;20037;-80
2022/12/12 09:21:48;;;;;;;26.90;22.10;;;;;;;11.38;58.54;98575.16;5051928;28;20476;-80
2022/12/12 09:24:13;;;;;;;30.75;24.10;;;;;;;11.61;58.36;98573.88;5050228;28;20075;-80
2022/12/12 09:26:39;;;;;;;28.00;21.75;;;;;;;11.54;58.17;98544.81;5051573;28;20402;-80
2022/12/12 09:29:05;;;;;;;28.27;22.73;;;;;;;11.61;57.93;98542.97;5051202;28;20108;-80
2022/12/12 09:31:30;;;;;;;27.92;21.60;;;;;;;11.64;58.20;98533.81;5052898;28;20066;-80
2022/12/12 09:33:56;;;;;;;27.27;21.75;;;;;;;9.97;58.17;98257.16;5051809;28;20033;-79
2022/12/12 09:36:21;;;;;;;24.13;18.08;;;;;;;11.87;58.18;98535.97;5051709;28;20099;-79
2022/12/12 09:38:47;;;;;;;21.27;16.77;;;;;;;12.21;58.04;98588.53;5051910;28;20107;-80
2022/12/12 09:41:16;;;;;;;18.65;15.57;;;;;;;12.27;57.89;98584.22;5050786;28;20086;-78
2022/12/12 09:44:07;;;;;;;20.55;15.40;;;;;;;12.33;58.16;98583.38;5050436;28;20044;-80
2022/12/12 09:46:37;;;;;;;19.10;15.43;;;;;;;11.72;57.46;98472.75;5051101;28;20021;-79
2022/12/12 09:49:12;;;;;;;17.17;13.65;;;;;;;11.76;57.37;98464.19;5048959;28;20025;-80
2022/12/12 09:51:39;;;;;;;17.70;14.05;;;;;;;12.53;57.64;98585.91;5042810;28;20090;-80
2022/12/12 09:54:05;;;;;;;19.33;13.93;;;;;;;12.33;57.74;98559.56;5060025;28;20056;-80
2022/12/12 09:56:51;;;;;;;23.08;16.45;;;;;;;12.35;57.59;98571.56;5052168;28;20394;-80
2022/12/12 09:59:43;;;;;;;19.90;15.05;;;;;;;12.14;57.50;98520.78;5047874;28;20032;-79
2022/12/12 10:02:18;;;;;;;21.75;15.98;;;;;;;12.52;57.79;98576.34;5062511;28;20032;-79
2022/12/12 10:04:50;;;;;;;24.15;18.67;;;;;;;12.63;57.11;98578.28;5054591;28;20038;-80
2022/12/12 10:07:29;;;;;;;25.65;18.80;;;;;;;12.66;57.47;98562.00;5039539;28;20515;-79
2022/12/12 10:10:20;;;;;;;25.42;19.23;;;;;;;12.78;56.95;98570.06;5034194;28;20536;-80
2022/12/12 10:12:47;;;;;;;27.10;19.60;;;;;;;12.77;56.95;98553.38;5041733;28;20041;-79
2022/12/12 10:15:36;;;;;;;25.67;18.48;;;;;;;11.29;56.63;98304.22;5048312;28;20433;-80
2022/12/12 10:18:11;;;;;;;21.00;14.77;;;;;;;12.60;55.80;98502.75;5051966;28;20036;-79
2022/12/12 10:20:46;;;;;;;17.40;15.07;;;;;;;13.07;55.87;98587.97;5049650;28;20052;-80
2022/12/12 10:23:33;;;;;;;22.05;19.02;;;;;;;13.16;55.53;98567.28;5050247;28;20020;-80
2022/12/12 10:26:12;;;;;;;24.25;20.67;;;;;;;12.59;55.57;98484.44;5043688;28;20037;-80
2022/12/12 10:28:37;;;;;;;24.67;18.77;;;;;;;12.92;55.62;98529.19;5059537;28;20472;-79
2022/12/12 10:31:36;;;;;;;24.98;18.02;;;;;;;13.19;55.34;98570.34;5071301;28;20024;-80
2022/12/12 10:34:20;;;;;;;26.45;20.13;;;;;;;12.78;55.31;98509.97;5050247;28;20051;-79
2022/12/12 10:37:25;;;;;;;24.13;16.35;;;;;;;13.26;55.36;98567.63;5050392;28;20033;-79
2022/12/12 10:40:08;;;;;;;22.45;17.92;;;;;;;13.32;55.37;98556.97;5051363;28;20025;-79
2022/12/12 10:43:02;;;;;;;21.67;17.90;;;;;;;13.34;55.36;98556.75;5044151;28;20633;-80
2022/12/12 10:45:55;;;;;;;21.80;15.10;;;;;;;13.36;55.43;98549.38;5057565;28;20023;-79
2022/12/12 10:48:21;;;;;;;22.60;15.35;;;;;;;12.71;55.54;98437.69;5060394;28;20024;-79
2022/12/12 10:50:51;;;;;;;16.70;14.20;;;;;;;13.29;55.42;98543.34;5053147;28;20394;-80
2022/12/12 10:53:18;;;;;;;20.73;15.82;;;;;;;13.49;55.44;98554.56;5051100;28;20497;-82
2022/12/12 10:55:52;;;;;;;19.73;14.85;;;;;;;13.17;55.13;98495.53;5043775;28;20041;-80
2022/12/12 10:58:18;;;;;;;24.13;15.93;;;;;;;13.36;55.06;98514.91;5033852;28;20025;-80
2022/12/12 11:00:45;;;;;;;19.02;14.63;;;;;;;13.62;54.93;98538.50;5043947;28;20083;-80
2022/12/12 11:03:31;;;;;;;13.90;10.82;;;;;;;13.63;54.23;98537.47;5052407;28;20108;-80
2022/12/12 11:06:01;;;;;;;13.48;10.13;;;;;;;13.65;54.34;98529.28;5047334;28;20036;-80
2022/12/12 11:08:30;;;;;;;13.45;11.82;;;;;;;13.36;53.75;98497.16;5052614;28;20024;-80
2022/12/12 11:11:06;;;;;;;10.52;8.63;;;;;;;13.34;53.29;98485.16;5049434;28;20041;-80
2022/12/12 11:13:42;;;;;;;11.45;7.15;;;;;;;13.65;53.49;98537.25;5050168;28;20078;-80
2022/12/12 11:16:15;;;;;;;6.82;5.70;;;;;;;13.28;53.82;98467.50;5050546;28;20120;-80
2022/12/12 11:19:03;;;;;;;7.15;5.65;;;;;;;13.65;53.49;98522.16;5056281;28;20029;-79
2022/12/12 11:21:32;;;;;;;8.88;5.05;;;;;;;13.63;53.76;98526.06;5042224;28;20033;-79
2022/12/12 11:23:59;;;;;;;5.93;5.30;;;;;;;13.63;53.82;98518.09;5034927;28;20021;-80
2022/12/12 11:26:27;;;;;;;8.38;4.93;;;;;;;13.51;53.56;98510.06;5037665;28;20044;-79
2022/12/12 11:28:59;;;;;;;17.40;5.15;;;;;;;13.60;53.72;98534.44;5061721;28;20166;-79
2022/12/12 11:31:31;;;;;;;9.07;6.38;;;;;;;13.29;53.60;98477.06;5069328;28;20125;-80
2022/12/12 11:34:06;;;;;;;16.63;8.40;;;;;;;13.39;53.24;98472.06;5051914;28;20025;-79
2022/12/12 11:36:35;;;;;;;8.88;6.68;;;;;;;13.74;53.23;98514.69;5041866;28;20036;-79
2022/12/12 11:39:11;;;;;;;12.15;7.25;;;;;;;13.81;52.98;98509.31;5044930;28;20016;-79
2022/12/12 11:41:59;;;;;;;10.80;6.97;;;;;;;13.49;52.12;98466.25;5051115;28;20040;-80
2022/12/12 11:44:30;;;;;;;11.52;8.00;;;;;;;13.43;52.53;98446.75;5039170;28;20108;-79
2022/12/12 11:46:55;;;;;;;10.10;7.13;;;;;;;13.16;52.74;98387.06;5045235;28;20130;-80
2022/12/12 11:49:21;;;;;;;9.05;6.32;;;;;;;13.12;52.31;98402.59;5052414;28;20061;-80
2022/12/12 11:51:47;;;;;;;9.95;5.88;;;;;;;13.25;52.66;98406.97;5044852;28;20026;-80
2022/12/12 11:54:12;;;;;;;9.32;6.88;;;;;;;13.79;52.34;98492.78;5050941;28;20032;-80
2022/12/12 11:56:44;;;;;;;9.73;5.95;;;;;;;13.42;51.98;98434.50;5051387;28;20048;-80
2022/12/12 11:59:09;;;;;;;9.20;7.20;;;;;;;13.86;52.26;98499.63;5045476;28;20064;-80